Bridgeport, Oregon
Current Conditions -  °F | °C
As of 9:53 AM on Saturday 20 Dec 2014 (Local Time) from KBKE Reporting Station
Overcast Overcast  
Wind Chill: 33°   Ceiling: 10000
Heat Index: 40°   Visibility: 10mi
Dew Point: 35°   Wind: 12mph
Humidity: 83%   Direction: 130°SE
Pressure: 29.9"   Gusts: NA
Location:  44.49°N, 117.74°W
Report Text: KBKE 201753Z AUTO 13010KT 10SM SCT044 SCT080 OVC100 04/02 A2990 RMK AO2 SLP143 T00440017 10044 20017 55000 TSNO
Loading
Personal Weather Stations






























Interactive Weather Map New forecast layout! Learn more

10-Day Weather Forecast

Advertisements
Track Severe Weather on mobile